sensor_id;sensor_type;location;lat;lon;timestamp;temperature;humidity
20698;DHT22;10508;50.956;4.640;2024-01-06T00:01:41;7.90;99.90
20698;DHT22;10508;50.956;4.640;2024-01-06T00:04:06;7.90;99.90
20698;DHT22;10508;50.956;4.640;2024-01-06T00:06:32;7.80;99.90
20698;DHT22;10508;50.956;4.640;2024-01-06T00:08:58;7.80;99.90
20698;DHT22;10508;50.956;4.640;2024-01-06T00:11:24;7.80;99.90
20698;DHT22;10508;50.956;4.640;2024-01-06T00:13:49;7.80;99.90
20698;DHT22;10508;50.956;4.640;2024-01-06T00:16:19;7.80;99.90
20698;DHT22;10508;50.956;4.640;2024-01-06T00:18:46;7.80;99.90
20698;DHT22;10508;50.956;4.640;2024-01-06T00:21:11;7.80;99.90
20698;DHT22;10508;50.956;4.640;2024-01-06T00:23:37;7.80;99.90
20698;DHT22;10508;50.956;4.640;2024-01-06T00:26:03;7.80;99.90
20698;DHT22;10508;50.956;4.640;2024-01-06T00:28:29;7.80;99.90
20698;DHT22;10508;50.956;4.640;2024-01-06T00:30:55;7.80;99.90
20698;DHT22;10508;50.956;4.640;2024-01-06T00:33:21;7.80;99.90
20698;DHT22;10508;50.956;4.640;2024-01-06T00:35:46;7.70;99.90
20698;DHT22;10508;50.956;4.640;2024-01-06T00:38:12;7.70;99.90
20698;DHT22;10508;50.956;4.640;2024-01-06T00:40:38;7.80;99.90
20698;DHT22;10508;50.956;4.640;2024-01-06T00:43:04;7.80;99.90
20698;DHT22;10508;50.956;4.640;2024-01-06T00:45:30;7.80;99.90
20698;DHT22;10508;50.956;4.640;2024-01-06T00:47:57;7.80;99.90
20698;DHT22;10508;50.956;4.640;2024-01-06T00:50:22;7.80;99.90
20698;DHT22;10508;50.956;4.640;2024-01-06T00:52:48;7.70;99.90
20698;DHT22;10508;50.956;4.640;2024-01-06T00:55:18;7.70;99.90
20698;DHT22;10508;50.956;4.640;2024-01-06T00:57:44;7.70;99.90
20698;DHT22;10508;50.956;4.640;2024-01-06T01:00:10;7.70;99.90
20698;DHT22;10508;50.956;4.640;2024-01-06T01:02:36;7.80;99.90
20698;DHT22;10508;50.956;4.640;2024-01-06T01:05:01;7.80;99.90
20698;DHT22;10508;50.956;4.640;2024-01-06T01:07:27;7.80;99.90
20698;DHT22;10508;50.956;4.640;2024-01-06T01:09:53;7.80;99.90
20698;DHT22;10508;50.956;4.640;2024-01-06T01:12:19;7.80;99.90
20698;DHT22;10508;50.956;4.640;2024-01-06T01:14:44;7.80;99.90
20698;DHT22;10508;50.956;4.640;2024-01-06T01:17:10;7.90;99.90
20698;DHT22;10508;50.956;4.640;2024-01-06T01:19:36;7.90;99.90
20698;DHT22;10508;50.956;4.640;2024-01-06T01:22:01;7.80;99.90
20698;DHT22;10508;50.956;4.640;2024-01-06T01:24:27;7.80;99.90
20698;DHT22;10508;50.956;4.640;2024-01-06T01:26:53;7.80;99.90
20698;DHT22;10508;50.956;4.640;2024-01-06T01:29:18;7.80;99.90
20698;DHT22;10508;50.956;4.640;2024-01-06T01:31:46;7.80;99.90
20698;DHT22;10508;50.956;4.640;2024-01-06T01:34:12;7.80;99.90
20698;DHT22;10508;50.956;4.640;2024-01-06T01:36:38;7.80;99.90
20698;DHT22;10508;50.956;4.640;2024-01-06T01:39:03;7.80;99.90
20698;DHT22;10508;50.956;4.640;2024-01-06T01:41:29;7.80;99.90
20698;DHT22;10508;50.956;4.640;2024-01-06T01:43:55;7.80;99.90
20698;DHT22;10508;50.956;4.640;2024-01-06T01:46:30;7.80;99.90
20698;DHT22;10508;50.956;4.640;2024-01-06T01:48:57;7.80;99.90
20698;DHT22;10508;50.956;4.640;2024-01-06T01:51:26;7.80;99.90
20698;DHT22;10508;50.956;4.640;2024-01-06T01:53:52;7.70;99.90
20698;DHT22;10508;50.956;4.640;2024-01-06T01:56:19;7.80;99.90
20698;DHT22;10508;50.956;4.640;2024-01-06T01:58:45;7.80;99.90
20698;DHT22;10508;50.956;4.640;2024-01-06T02:01:20;7.80;99.90
20698;DHT22;10508;50.956;4.640;2024-01-06T02:03:45;7.80;99.90
20698;DHT22;10508;50.956;4.640;2024-01-06T02:06:12;7.80;99.90
20698;DHT22;10508;50.956;4.640;2024-01-06T02:08:38;7.70;99.90
20698;DHT22;10508;50.956;4.640;2024-01-06T02:11:04;7.70;99.90
20698;DHT22;10508;50.956;4.640;2024-01-06T02:13:37;7.70;99.90
20698;DHT22;10508;50.956;4.640;2024-01-06T02:16:04;7.70;99.90
20698;DHT22;10508;50.956;4.640;2024-01-06T02:18:33;7.70;99.90
20698;DHT22;10508;50.956;4.640;2024-01-06T02:21:02;7.70;99.90
20698;DHT22;10508;50.956;4.640;2024-01-06T02:23:29;7.70;99.90
20698;DHT22;10508;50.956;4.640;2024-01-06T02:25:55;7.70;99.90
20698;DHT22;10508;50.956;4.640;2024-01-06T02:28:21;7.70;99.90
20698;DHT22;10508;50.956;4.640;2024-01-06T02:30:47;7.70;99.90
20698;DHT22;10508;50.956;4.640;2024-01-06T02:33:12;7.70;99.90
20698;DHT22;10508;50.956;4.640;2024-01-06T02:35:38;7.70;99.90
20698;DHT22;10508;50.956;4.640;2024-01-06T02:38:05;7.70;99.90
20698;DHT22;10508;50.956;4.640;2024-01-06T02:40:31;7.80;99.90
20698;DHT22;10508;50.956;4.640;2024-01-06T02:42:58;7.80;99.90
20698;DHT22;10508;50.956;4.640;2024-01-06T02:45:24;7.70;99.90
20698;DHT22;10508;50.956;4.640;2024-01-06T02:47:49;7.80;99.90
20698;DHT22;10508;50.956;4.640;2024-01-06T02:50:15;7.90;99.90
20698;DHT22;10508;50.956;4.640;2024-01-06T02:52:41;7.80;99.90
20698;DHT22;10508;50.956;4.640;2024-01-06T02:55:07;7.50;99.90
20698;DHT22;10508;50.956;4.640;2024-01-06T02:57:32;7.80;99.90
20698;DHT22;10508;50.956;4.640;2024-01-06T02:59:58;7.80;99.90
20698;DHT22;10508;50.956;4.640;2024-01-06T03:02:24;7.80;99.90
20698;DHT22;10508;50.956;4.640;2024-01-06T03:04:49;7.80;99.90
20698;DHT22;10508;50.956;4.640;2024-01-06T03:07:15;7.70;99.90
20698;DHT22;10508;50.956;4.640;2024-01-06T03:09:41;8.10;99.90
20698;DHT22;10508;50.956;4.640;2024-01-06T03:12:07;7.70;99.90
20698;DHT22;10508;50.956;4.640;2024-01-06T03:14:35;7.70;99.90
20698;DHT22;10508;50.956;4.640;2024-01-06T03:17:00;7.70;99.90
20698;DHT22;10508;50.956;4.640;2024-01-06T03:19:26;7.70;99.90
20698;DHT22;10508;50.956;4.640;2024-01-06T03:21:53;7.70;99.90
20698;DHT22;10508;50.956;4.640;2024-01-06T03:24:19;7.40;99.90
20698;DHT22;10508;50.956;4.640;2024-01-06T03:26:45;7.50;99.90
20698;DHT22;10508;50.956;4.640;2024-01-06T03:29:10;7.60;99.90
20698;DHT22;10508;50.956;4.640;2024-01-06T03:31:37;7.60;99.90
20698;DHT22;10508;50.956;4.640;2024-01-06T03:34:02;7.60;99.90
20698;DHT22;10508;50.956;4.640;2024-01-06T03:36:28;7.60;99.90
20698;DHT22;10508;50.956;4.640;2024-01-06T03:38:54;7.50;99.90
20698;DHT22;10508;50.956;4.640;2024-01-06T03:41:20;7.50;99.90
20698;DHT22;10508;50.956;4.640;2024-01-06T03:43:45;7.50;99.90
20698;DHT22;10508;50.956;4.640;2024-01-06T03:46:11;7.70;99.90
20698;DHT22;10508;50.956;4.640;2024-01-06T03:48:37;7.50;99.90
20698;DHT22;10508;50.956;4.640;2024-01-06T03:51:02;7.50;99.90
20698;DHT22;10508;50.956;4.640;2024-01-06T03:53:28;7.50;99.90
20698;DHT22;10508;50.956;4.640;2024-01-06T03:56:13;7.40;99.90
20698;DHT22;10508;50.956;4.640;2024-01-06T03:58:39;7.50;99.90
20698;DHT22;10508;50.956;4.640;2024-01-06T04:01:04;7.50;99.90
20698;DHT22;10508;50.956;4.640;2024-01-06T04:03:30;7.50;99.90
20698;DHT22;10508;50.956;4.640;2024-01-06T04:05:56;7.70;99.90
20698;DHT22;10508;50.956;4.640;2024-01-06T04:08:21;7.40;99.90
20698;DHT22;10508;50.956;4.640;2024-01-06T04:10:47;7.50;99.90
20698;DHT22;10508;50.956;4.640;2024-01-06T04:13:13;7.40;99.90
20698;DHT22;10508;50.956;4.640;2024-01-06T04:15:39;7.40;99.90
20698;DHT22;10508;50.956;4.640;2024-01-06T04:18:05;7.70;99.90
20698;DHT22;10508;50.956;4.640;2024-01-06T04:20:31;7.40;99.90
20698;DHT22;10508;50.956;4.640;2024-01-06T04:22:57;7.30;99.90
20698;DHT22;10508;50.956;4.640;2024-01-06T04:25:23;7.30;99.90
20698;DHT22;10508;50.956;4.640;2024-01-06T04:27:49;7.20;99.90
20698;DHT22;10508;50.956;4.640;2024-01-06T04:30:15;7.30;99.90
20698;DHT22;10508;50.956;4.640;2024-01-06T04:32:41;7.10;99.90
20698;DHT22;10508;50.956;4.640;2024-01-06T04:35:07;7.30;99.90
20698;DHT22;10508;50.956;4.640;2024-01-06T04:37:33;7.30;99.90
20698;DHT22;10508;50.956;4.640;2024-01-06T04:39:59;7.20;99.90
20698;DHT22;10508;50.956;4.640;2024-01-06T04:42:25;7.30;99.90
20698;DHT22;10508;50.956;4.640;2024-01-06T04:44:50;7.30;99.90
20698;DHT22;10508;50.956;4.640;2024-01-06T04:47:16;7.30;99.90
20698;DHT22;10508;50.956;4.640;2024-01-06T04:49:43;7.20;99.90
20698;DHT22;10508;50.956;4.640;2024-01-06T04:52:09;7.30;99.90
20698;DHT22;10508;50.956;4.640;2024-01-06T04:57:02;7.20;99.90
20698;DHT22;10508;50.956;4.640;2024-01-06T04:59:30;7.20;99.90
20698;DHT22;10508;50.956;4.640;2024-01-06T05:01:57;7.30;99.90
20698;DHT22;10508;50.956;4.640;2024-01-06T05:04:23;7.30;99.90
20698;DHT22;10508;50.956;4.640;2024-01-06T05:06:49;7.30;99.90
20698;DHT22;10508;50.956;4.640;2024-01-06T05:09:15;7.20;99.90
20698;DHT22;10508;50.956;4.640;2024-01-06T05:11:43;7.20;99.90
20698;DHT22;10508;50.956;4.640;2024-01-06T05:14:09;7.30;99.90
20698;DHT22;10508;50.956;4.640;2024-01-06T05:16:35;7.20;99.90
20698;DHT22;10508;50.956;4.640;2024-01-06T05:19:00;7.10;99.90
20698;DHT22;10508;50.956;4.640;2024-01-06T05:33:39;7.00;99.90
20698;DHT22;10508;50.956;4.640;2024-01-06T05:36:05;7.00;99.90
20698;DHT22;10508;50.956;4.640;2024-01-06T05:38:31;7.00;99.90
20698;DHT22;10508;50.956;4.640;2024-01-06T05:45:50;6.90;99.90
20698;DHT22;10508;50.956;4.640;2024-01-06T05:48:16;6.90;99.90
20698;DHT22;10508;50.956;4.640;2024-01-06T05:53:08;7.00;99.90
20698;DHT22;10508;50.956;4.640;2024-01-06T05:55:34;7.00;99.90
20698;DHT22;10508;50.956;4.640;2024-01-06T05:58:00;7.00;99.90
20698;DHT22;10508;50.956;4.640;2024-01-06T06:00:26;7.00;99.90
20698;DHT22;10508;50.956;4.640;2024-01-06T06:02:52;7.00;99.90
20698;DHT22;10508;50.956;4.640;2024-01-06T06:05:18;6.90;99.90
20698;DHT22;10508;50.956;4.640;2024-01-06T06:07:43;7.00;99.90
20698;DHT22;10508;50.956;4.640;2024-01-06T06:10:10;6.90;99.90
20698;DHT22;10508;50.956;4.640;2024-01-06T06:12:37;6.90;99.90
20698;DHT22;10508;50.956;4.640;2024-01-06T06:15:04;6.90;99.90
20698;DHT22;10508;50.956;4.640;2024-01-06T06:17:30;6.80;99.90
20698;DHT22;10508;50.956;4.640;2024-01-06T06:19:57;6.70;99.90
20698;DHT22;10508;50.956;4.640;2024-01-06T06:22:23;6.70;99.90
20698;DHT22;10508;50.956;4.640;2024-01-06T06:24:51;6.60;99.90
20698;DHT22;10508;50.956;4.640;2024-01-06T06:27:17;6.60;99.90
20698;DHT22;10508;50.956;4.640;2024-01-06T06:29:43;6.60;99.90
20698;DHT22;10508;50.956;4.640;2024-01-06T06:32:08;6.60;99.90
20698;DHT22;10508;50.956;4.640;2024-01-06T06:34:34;6.60;99.90
20698;DHT22;10508;50.956;4.640;2024-01-06T06:36:59;6.50;99.90
20698;DHT22;10508;50.956;4.640;2024-01-06T06:39:25;6.50;99.90
20698;DHT22;10508;50.956;4.640;2024-01-06T06:41:52;6.50;99.90
20698;DHT22;10508;50.956;4.640;2024-01-06T06:44:18;6.50;99.90
20698;DHT22;10508;50.956;4.640;2024-01-06T06:46:44;6.60;99.90
20698;DHT22;10508;50.956;4.640;2024-01-06T06:49:09;6.60;99.90
20698;DHT22;10508;50.956;4.640;2024-01-06T06:51:35;6.50;99.90
20698;DHT22;10508;50.956;4.640;2024-01-06T06:54:00;6.50;99.90
20698;DHT22;10508;50.956;4.640;2024-01-06T06:56:26;6.50;99.90
20698;DHT22;10508;50.956;4.640;2024-01-06T06:58:52;6.50;99.90
20698;DHT22;10508;50.956;4.640;2024-01-06T07:01:18;6.40;99.90
20698;DHT22;10508;50.956;4.640;2024-01-06T07:03:43;6.40;99.90
20698;DHT22;10508;50.956;4.640;2024-01-06T07:06:12;6.40;99.90
20698;DHT22;10508;50.956;4.640;2024-01-06T07:08:38;6.40;99.90
20698;DHT22;10508;50.956;4.640;2024-01-06T07:11:04;6.40;99.90
20698;DHT22;10508;50.956;4.640;2024-01-06T07:13:30;6.40;99.90
20698;DHT22;10508;50.956;4.640;2024-01-06T07:15:56;6.40;99.90
20698;DHT22;10508;50.956;4.640;2024-01-06T07:18:21;6.30;99.90
20698;DHT22;10508;50.956;4.640;2024-01-06T07:20:49;6.40;99.90
20698;DHT22;10508;50.956;4.640;2024-01-06T07:23:15;6.30;99.90
20698;DHT22;10508;50.956;4.640;2024-01-06T07:25:40;6.40;99.90
20698;DHT22;10508;50.956;4.640;2024-01-06T07:28:06;6.40;99.90
20698;DHT22;10508;50.956;4.640;2024-01-06T07:30:33;6.40;99.90
20698;DHT22;10508;50.956;4.640;2024-01-06T07:32:59;6.40;99.90
20698;DHT22;10508;50.956;4.640;2024-01-06T07:35:25;6.40;99.90
20698;DHT22;10508;50.956;4.640;2024-01-06T07:37:51;6.40;99.90
20698;DHT22;10508;50.956;4.640;2024-01-06T07:40:17;6.40;99.90
20698;DHT22;10508;50.956;4.640;2024-01-06T07:42:43;6.40;99.90
20698;DHT22;10508;50.956;4.640;2024-01-06T07:45:09;6.40;99.90
20698;DHT22;10508;50.956;4.640;2024-01-06T07:47:35;6.30;99.90
20698;DHT22;10508;50.956;4.640;2024-01-06T07:50:02;6.40;99.90
20698;DHT22;10508;50.956;4.640;2024-01-06T07:52:28;6.40;99.90
20698;DHT22;10508;50.956;4.640;2024-01-06T07:54:54;6.40;99.90
20698;DHT22;10508;50.956;4.640;2024-01-06T07:57:19;6.40;99.90
20698;DHT22;10508;50.956;4.640;2024-01-06T07:59:45;6.40;99.90
20698;DHT22;10508;50.956;4.640;2024-01-06T08:02:11;6.50;99.90
20698;DHT22;10508;50.956;4.640;2024-01-06T08:04:37;6.40;99.90
20698;DHT22;10508;50.956;4.640;2024-01-06T08:07:02;6.40;99.90
20698;DHT22;10508;50.956;4.640;2024-01-06T08:09:28;6.40;99.90
20698;DHT22;10508;50.956;4.640;2024-01-06T08:11:54;6.40;99.90
20698;DHT22;10508;50.956;4.640;2024-01-06T08:14:19;6.40;99.90
20698;DHT22;10508;50.956;4.640;2024-01-06T08:16:45;6.50;99.90
20698;DHT22;10508;50.956;4.640;2024-01-06T08:19:11;6.50;99.90
20698;DHT22;10508;50.956;4.640;2024-01-06T08:21:37;6.50;99.90
20698;DHT22;10508;50.956;4.640;2024-01-06T08:24:03;6.40;99.90
20698;DHT22;10508;50.956;4.640;2024-01-06T08:26:29;6.40;99.90
20698;DHT22;10508;50.956;4.640;2024-01-06T08:28:54;6.50;99.90
20698;DHT22;10508;50.956;4.640;2024-01-06T08:31:20;6.50;99.90
20698;DHT22;10508;50.956;4.640;2024-01-06T08:33:47;6.50;99.90
20698;DHT22;10508;50.956;4.640;2024-01-06T08:36:13;6.50;99.90
20698;DHT22;10508;50.956;4.640;2024-01-06T08:38:38;6.40;99.90
20698;DHT22;10508;50.956;4.640;2024-01-06T08:41:04;6.40;99.90
20698;DHT22;10508;50.956;4.640;2024-01-06T08:43:30;6.40;99.90
20698;DHT22;10508;50.956;4.640;2024-01-06T08:45:55;6.40;99.90
20698;DHT22;10508;50.956;4.640;2024-01-06T08:48:21;6.30;99.90
20698;DHT22;10508;50.956;4.640;2024-01-06T08:50:47;6.50;99.90
20698;DHT22;10508;50.956;4.640;2024-01-06T08:53:13;6.50;99.90
20698;DHT22;10508;50.956;4.640;2024-01-06T08:55:39;6.40;99.90
20698;DHT22;10508;50.956;4.640;2024-01-06T08:58:05;6.50;99.90
20698;DHT22;10508;50.956;4.640;2024-01-06T09:00:31;6.50;99.90
20698;DHT22;10508;50.956;4.640;2024-01-06T09:03:15;6.50;99.90
20698;DHT22;10508;50.956;4.640;2024-01-06T09:05:41;6.40;99.90
20698;DHT22;10508;50.956;4.640;2024-01-06T09:08:07;6.40;99.90
20698;DHT22;10508;50.956;4.640;2024-01-06T09:10:33;6.40;99.90
20698;DHT22;10508;50.956;4.640;2024-01-06T09:12:58;6.30;99.90
20698;DHT22;10508;50.956;4.640;2024-01-06T09:15:25;6.40;99.90
20698;DHT22;10508;50.956;4.640;2024-01-06T09:17:51;6.30;99.90
20698;DHT22;10508;50.956;4.640;2024-01-06T09:20:16;5.80;99.90
20698;DHT22;10508;50.956;4.640;2024-01-06T09:22:43;6.30;99.90
20698;DHT22;10508;50.956;4.640;2024-01-06T09:25:08;6.30;99.90
20698;DHT22;10508;50.956;4.640;2024-01-06T09:27:34;6.30;99.90
20698;DHT22;10508;50.956;4.640;2024-01-06T09:30:00;6.40;99.90
20698;DHT22;10508;50.956;4.640;2024-01-06T09:32:25;6.40;99.90
20698;DHT22;10508;50.956;4.640;2024-01-06T09:34:51;6.40;99.90
20698;DHT22;10508;50.956;4.640;2024-01-06T09:37:17;6.60;99.90
20698;DHT22;10508;50.956;4.640;2024-01-06T09:39:42;6.50;99.90
20698;DHT22;10508;50.956;4.640;2024-01-06T09:42:08;6.40;99.90
20698;DHT22;10508;50.956;4.640;2024-01-06T09:44:34;6.50;99.90
20698;DHT22;10508;50.956;4.640;2024-01-06T09:47:01;7.70;99.90
20698;DHT22;10508;50.956;4.640;2024-01-06T09:49:30;6.40;99.90
20698;DHT22;10508;50.956;4.640;2024-01-06T09:52:01;6.40;99.90
20698;DHT22;10508;50.956;4.640;2024-01-06T09:54:30;6.40;99.90
20698;DHT22;10508;50.956;4.640;2024-01-06T09:57:00;6.40;99.90
20698;DHT22;10508;50.956;4.640;2024-01-06T09:59:27;6.30;99.90
20698;DHT22;10508;50.956;4.640;2024-01-06T10:01:57;6.30;99.90
20698;DHT22;10508;50.956;4.640;2024-01-06T10:04:23;6.30;99.90
20698;DHT22;10508;50.956;4.640;2024-01-06T10:06:49;6.20;99.90
20698;DHT22;10508;50.956;4.640;2024-01-06T10:09:15;6.20;99.90
20698;DHT22;10508;50.956;4.640;2024-01-06T10:11:40;6.20;99.90
20698;DHT22;10508;50.956;4.640;2024-01-06T10:14:06;6.20;99.90
20698;DHT22;10508;50.956;4.640;2024-01-06T10:16:34;6.30;99.90
20698;DHT22;10508;50.956;4.640;2024-01-06T10:19:01;6.30;99.90
20698;DHT22;10508;50.956;4.640;2024-01-06T10:21:27;6.30;99.90
20698;DHT22;10508;50.956;4.640;2024-01-06T10:23:54;6.30;99.90
20698;DHT22;10508;50.956;4.640;2024-01-06T10:26:20;6.30;99.90
20698;DHT22;10508;50.956;4.640;2024-01-06T10:28:45;6.30;99.90
20698;DHT22;10508;50.956;4.640;2024-01-06T10:31:13;6.30;99.90
20698;DHT22;10508;50.956;4.640;2024-01-06T10:33:39;6.30;99.90
20698;DHT22;10508;50.956;4.640;2024-01-06T10:36:05;6.30;99.90
20698;DHT22;10508;50.956;4.640;2024-01-06T10:38:33;6.30;99.90
20698;DHT22;10508;50.956;4.640;2024-01-06T10:41:01;6.40;99.90
20698;DHT22;10508;50.956;4.640;2024-01-06T10:43:33;6.30;99.90
20698;DHT22;10508;50.956;4.640;2024-01-06T10:46:06;6.30;99.90
20698;DHT22;10508;50.956;4.640;2024-01-06T10:48:37;5.50;99.90
20698;DHT22;10508;50.956;4.640;2024-01-06T10:51:09;6.30;99.90
20698;DHT22;10508;50.956;4.640;2024-01-06T10:53:35;6.20;99.90
20698;DHT22;10508;50.956;4.640;2024-01-06T10:56:03;6.10;99.90
20698;DHT22;10508;50.956;4.640;2024-01-06T10:58:30;6.10;99.90
20698;DHT22;10508;50.956;4.640;2024-01-06T11:00:57;6.00;99.90
20698;DHT22;10508;50.956;4.640;2024-01-06T11:03:24;6.10;99.90
20698;DHT22;10508;50.956;4.640;2024-01-06T11:05:50;6.10;99.90
20698;DHT22;10508;50.956;4.640;2024-01-06T11:08:19;6.00;99.90
20698;DHT22;10508;50.956;4.640;2024-01-06T11:10:46;6.00;99.90
20698;DHT22;10508;50.956;4.640;2024-01-06T11:13:15;6.00;99.90
20698;DHT22;10508;50.956;4.640;2024-01-06T11:15:50;6.00;99.90
20698;DHT22;10508;50.956;4.640;2024-01-06T11:18:37;6.00;99.90
20698;DHT22;10508;50.956;4.640;2024-01-06T11:21:17;6.00;99.90
20698;DHT22;10508;50.956;4.640;2024-01-06T11:23:43;5.90;99.90
20698;DHT22;10508;50.956;4.640;2024-01-06T11:26:10;6.00;99.90
20698;DHT22;10508;50.956;4.640;2024-01-06T11:28:47;6.10;99.90
20698;DHT22;10508;50.956;4.640;2024-01-06T11:31:13;6.00;99.90
20698;DHT22;10508;50.956;4.640;2024-01-06T11:33:43;6.20;99.90
20698;DHT22;10508;50.956;4.640;2024-01-06T11:36:09;6.10;99.90
20698;DHT22;10508;50.956;4.640;2024-01-06T11:38:38;6.10;99.90
20698;DHT22;10508;50.956;4.640;2024-01-06T11:41:07;6.10;99.90
20698;DHT22;10508;50.956;4.640;2024-01-06T11:43:34;6.10;99.90
20698;DHT22;10508;50.956;4.640;2024-01-06T11:46:05;6.10;99.90
20698;DHT22;10508;50.956;4.640;2024-01-06T11:48:32;6.20;99.90
20698;DHT22;10508;50.956;4.640;2024-01-06T11:50:59;6.10;99.90
20698;DHT22;10508;50.956;4.640;2024-01-06T11:53:26;6.20;99.90
20698;DHT22;10508;50.956;4.640;2024-01-06T11:55:55;6.30;99.90
20698;DHT22;10508;50.956;4.640;2024-01-06T11:58:21;6.20;99.90
20698;DHT22;10508;50.956;4.640;2024-01-06T12:00:55;6.30;99.90
20698;DHT22;10508;50.956;4.640;2024-01-06T12:03:22;6.30;99.90
20698;DHT22;10508;50.956;4.640;2024-01-06T12:06:01;6.20;99.90
20698;DHT22;10508;50.956;4.640;2024-01-06T12:08:28;6.20;99.90
20698;DHT22;10508;50.956;4.640;2024-01-06T12:11:04;6.20;99.90
20698;DHT22;10508;50.956;4.640;2024-01-06T12:13:30;6.10;99.90
20698;DHT22;10508;50.956;4.640;2024-01-06T12:15:56;6.10;99.90
20698;DHT22;10508;50.956;4.640;2024-01-06T12:18:22;6.20;99.90
20698;DHT22;10508;50.956;4.640;2024-01-06T12:20:50;6.20;99.90
20698;DHT22;10508;50.956;4.640;2024-01-06T12:23:28;6.20;99.90
20698;DHT22;10508;50.956;4.640;2024-01-06T12:25:56;6.30;99.90
20698;DHT22;10508;50.956;4.640;2024-01-06T12:28:22;6.20;99.90
20698;DHT22;10508;50.956;4.640;2024-01-06T12:30:48;6.20;99.90
20698;DHT22;10508;50.956;4.640;2024-01-06T12:33:14;6.20;99.90
20698;DHT22;10508;50.956;4.640;2024-01-06T12:35:40;6.20;99.90
20698;DHT22;10508;50.956;4.640;2024-01-06T12:38:08;6.20;99.90
20698;DHT22;10508;50.956;4.640;2024-01-06T12:40:37;6.20;99.90
20698;DHT22;10508;50.956;4.640;2024-01-06T12:43:06;6.20;99.90
20698;DHT22;10508;50.956;4.640;2024-01-06T12:45:32;6.30;99.90
20698;DHT22;10508;50.956;4.640;2024-01-06T12:47:58;6.30;99.90
20698;DHT22;10508;50.956;4.640;2024-01-06T12:50:24;6.20;99.90
20698;DHT22;10508;50.956;4.640;2024-01-06T12:52:49;6.20;99.90
20698;DHT22;10508;50.956;4.640;2024-01-06T12:55:15;6.20;99.90
20698;DHT22;10508;50.956;4.640;2024-01-06T12:57:42;6.20;99.90
20698;DHT22;10508;50.956;4.640;2024-01-06T13:00:08;6.10;99.90
20698;DHT22;10508;50.956;4.640;2024-01-06T13:02:37;6.20;99.90
20698;DHT22;10508;50.956;4.640;2024-01-06T13:05:03;6.10;99.90
20698;DHT22;10508;50.956;4.640;2024-01-06T13:07:29;6.00;99.90
20698;DHT22;10508;50.956;4.640;2024-01-06T13:09:55;6.00;99.90
20698;DHT22;10508;50.956;4.640;2024-01-06T13:12:27;6.10;99.90
20698;DHT22;10508;50.956;4.640;2024-01-06T13:14:54;6.10;99.90
20698;DHT22;10508;50.956;4.640;2024-01-06T13:17:20;6.10;99.90
20698;DHT22;10508;50.956;4.640;2024-01-06T13:19:46;6.00;99.90
20698;DHT22;10508;50.956;4.640;2024-01-06T13:22:11;6.10;99.90
20698;DHT22;10508;50.956;4.640;2024-01-06T13:24:38;6.10;99.90
20698;DHT22;10508;50.956;4.640;2024-01-06T13:27:06;6.20;99.90
20698;DHT22;10508;50.956;4.640;2024-01-06T13:29:31;6.20;99.90
20698;DHT22;10508;50.956;4.640;2024-01-06T13:31:57;6.20;99.90
20698;DHT22;10508;50.956;4.640;2024-01-06T13:34:25;6.10;99.90
20698;DHT22;10508;50.956;4.640;2024-01-06T13:36:50;6.10;99.90
20698;DHT22;10508;50.956;4.640;2024-01-06T13:39:16;6.00;99.90
20698;DHT22;10508;50.956;4.640;2024-01-06T13:41:48;6.00;99.90
20698;DHT22;10508;50.956;4.640;2024-01-06T13:44:15;6.10;99.90
20698;DHT22;10508;50.956;4.640;2024-01-06T13:46:41;6.00;99.90
20698;DHT22;10508;50.956;4.640;2024-01-06T13:49:11;6.00;99.90
20698;DHT22;10508;50.956;4.640;2024-01-06T13:51:38;6.00;99.90
20698;DHT22;10508;50.956;4.640;2024-01-06T13:54:04;6.00;99.90
20698;DHT22;10508;50.956;4.640;2024-01-06T13:56:29;6.10;99.90
20698;DHT22;10508;50.956;4.640;2024-01-06T13:58:55;6.00;99.90
20698;DHT22;10508;50.956;4.640;2024-01-06T14:01:21;6.00;99.90
20698;DHT22;10508;50.956;4.640;2024-01-06T14:03:49;6.00;99.90
20698;DHT22;10508;50.956;4.640;2024-01-06T14:06:15;5.90;99.90
20698;DHT22;10508;50.956;4.640;2024-01-06T14:08:43;5.90;99.90
20698;DHT22;10508;50.956;4.640;2024-01-06T14:11:09;5.90;99.90
20698;DHT22;10508;50.956;4.640;2024-01-06T14:13:34;5.90;99.90
20698;DHT22;10508;50.956;4.640;2024-01-06T14:16:00;6.00;99.90
20698;DHT22;10508;50.956;4.640;2024-01-06T14:18:26;5.90;99.90
20698;DHT22;10508;50.956;4.640;2024-01-06T14:20:53;5.90;99.90
20698;DHT22;10508;50.956;4.640;2024-01-06T14:23:21;5.90;99.90
20698;DHT22;10508;50.956;4.640;2024-01-06T14:25:47;5.90;99.90
20698;DHT22;10508;50.956;4.640;2024-01-06T14:28:12;5.90;99.90
20698;DHT22;10508;50.956;4.640;2024-01-06T14:30:38;5.90;99.90
20698;DHT22;10508;50.956;4.640;2024-01-06T14:33:04;6.00;99.90
20698;DHT22;10508;50.956;4.640;2024-01-06T14:35:29;5.70;99.90
20698;DHT22;10508;50.956;4.640;2024-01-06T14:37:55;5.90;99.90
20698;DHT22;10508;50.956;4.640;2024-01-06T14:40:22;5.90;99.90
20698;DHT22;10508;50.956;4.640;2024-01-06T14:42:48;5.90;99.90
20698;DHT22;10508;50.956;4.640;2024-01-06T14:45:14;5.90;99.90
20698;DHT22;10508;50.956;4.640;2024-01-06T14:47:39;6.00;99.90
20698;DHT22;10508;50.956;4.640;2024-01-06T14:50:06;6.00;99.90
20698;DHT22;10508;50.956;4.640;2024-01-06T14:52:32;5.90;99.90
20698;DHT22;10508;50.956;4.640;2024-01-06T14:54:57;6.00;99.90
20698;DHT22;10508;50.956;4.640;2024-01-06T14:57:24;5.90;99.90
20698;DHT22;10508;50.956;4.640;2024-01-06T14:59:50;6.00;99.90
20698;DHT22;10508;50.956;4.640;2024-01-06T15:02:15;6.00;99.90
20698;DHT22;10508;50.956;4.640;2024-01-06T15:04:41;6.00;99.90
20698;DHT22;10508;50.956;4.640;2024-01-06T15:07:07;5.90;99.90
20698;DHT22;10508;50.956;4.640;2024-01-06T15:09:33;5.90;99.90
20698;DHT22;10508;50.956;4.640;2024-01-06T15:11:58;5.90;99.90
20698;DHT22;10508;50.956;4.640;2024-01-06T15:14:24;6.00;99.90
20698;DHT22;10508;50.956;4.640;2024-01-06T15:16:50;6.00;99.90
20698;DHT22;10508;50.956;4.640;2024-01-06T15:19:17;6.00;99.90
20698;DHT22;10508;50.956;4.640;2024-01-06T15:21:43;5.90;99.90
20698;DHT22;10508;50.956;4.640;2024-01-06T15:24:09;5.90;99.90
20698;DHT22;10508;50.956;4.640;2024-01-06T15:26:35;5.90;99.90
20698;DHT22;10508;50.956;4.640;2024-01-06T15:29:00;5.90;99.90
20698;DHT22;10508;50.956;4.640;2024-01-06T15:31:27;5.90;99.90
20698;DHT22;10508;50.956;4.640;2024-01-06T15:33:53;6.00;99.90
20698;DHT22;10508;50.956;4.640;2024-01-06T15:36:19;6.00;99.90
20698;DHT22;10508;50.956;4.640;2024-01-06T15:38:44;6.00;99.90
20698;DHT22;10508;50.956;4.640;2024-01-06T15:41:10;5.80;99.90
20698;DHT22;10508;50.956;4.640;2024-01-06T15:43:35;5.90;99.90
20698;DHT22;10508;50.956;4.640;2024-01-06T15:46:03;5.90;99.90
20698;DHT22;10508;50.956;4.640;2024-01-06T15:48:29;6.00;99.90
20698;DHT22;10508;50.956;4.640;2024-01-06T15:50:56;5.90;99.90
20698;DHT22;10508;50.956;4.640;2024-01-06T15:53:22;5.80;99.90
20698;DHT22;10508;50.956;4.640;2024-01-06T15:55:48;5.80;99.90
20698;DHT22;10508;50.956;4.640;2024-01-06T15:58:13;5.90;99.90
20698;DHT22;10508;50.956;4.640;2024-01-06T16:00:39;5.80;99.90
20698;DHT22;10508;50.956;4.640;2024-01-06T16:03:05;5.80;99.90